Time;durP1;ratioP1;P1;durP2;ratioP2;P2;SDS_P1;SDS_P2;PMS_P1;PMS_P2;Temp;Humidity;BMP_temperature;BMP_pressure;BME280_temperature;BME280_humidity;BME280_pressure;Samples;Min_cycle;Max_cycle;Signal;HPM_P1;HPM_P2
2022/09/14 00:01:40;;;;;;;9.13;4.43;;;;;;;;;;5053693;28;20064;-72
2022/09/14 00:04:09;;;;;;;12.00;4.80;;;;;;;;;;5053520;28;20037;-72
2022/09/14 00:06:36;;;;;;;9.10;4.15;;;;;;;;;;5052021;28;20044;-69
2022/09/14 00:09:05;;;;;;;9.32;4.80;;;;;;;;;;5053357;28;20037;-74
2022/09/14 00:11:32;;;;;;;9.48;4.60;;;;;;;;;;5035781;28;20120;-74
2022/09/14 00:13:59;;;;;;;10.30;4.63;;;;;;;;;;5052267;28;20041;-74
2022/09/14 00:16:27;;;;;;;9.35;4.13;;;;;;;;;;5052165;28;20543;-74
2022/09/14 00:18:54;;;;;;;8.95;3.72;;;;;;;;;;5052171;28;20037;-69
2022/09/14 00:21:20;;;;;;;10.52;4.55;;;;;;;;;;5051113;28;20045;-69
2022/09/14 00:23:47;;;;;;;10.48;4.75;;;;;;;;;;5050465;28;20048;-68
2022/09/14 00:26:17;;;;;;;10.32;4.55;;;;;;;;;;5034410;28;20124;-69
2022/09/14 00:28:45;;;;;;;6.25;3.50;;;;;;;;;;5047289;28;20044;-69
2022/09/14 00:31:11;;;;;;;7.68;3.53;;;;;;;;;;5052136;28;20073;-69
2022/09/14 00:33:38;;;;;;;8.30;4.00;;;;;;;;;;5050685;28;20044;-74
2022/09/14 00:36:14;;;;;;;6.30;3.72;;;;;;;;;;5053093;28;20041;-74
2022/09/14 00:38:40;;;;;;;8.48;4.03;;;;;;;;;;5035057;28;20037;-74
2022/09/14 00:41:10;;;;;;;7.03;4.40;;;;;;;;;;5035310;28;20080;-74
2022/09/14 00:43:51;;;;;;;7.47;3.83;;;;;;;;;;5052046;28;20442;-69
2022/09/14 00:46:17;;;;;;;12.48;5.95;;;;;;;;;;5050620;28;20037;-69
2022/09/14 00:48:43;;;;;;;12.77;5.43;;;;;;;;;;5050004;28;20036;-69
2022/09/14 00:51:10;;;;;;;8.13;5.35;;;;;;;;;;5051969;28;20036;-69
2022/09/14 00:53:36;;;;;;;7.50;4.70;;;;;;;;;;5050626;28;20569;-68
2022/09/14 00:56:02;;;;;;;12.57;5.15;;;;;;;;;;5050356;28;20037;-69
2022/09/14 00:58:28;;;;;;;10.35;5.43;;;;;;;;;;5050340;28;20045;-69
2022/09/14 01:00:54;;;;;;;8.93;4.47;;;;;;;;;;5050259;28;20401;-69
2022/09/14 01:03:21;;;;;;;9.00;4.65;;;;;;;;;;5051485;28;20524;-69
2022/09/14 01:06:06;;;;;;;10.88;5.20;;;;;;;;;;5050289;28;20116;-69
2022/09/14 01:08:44;;;;;;;7.53;3.90;;;;;;;;;;5050404;28;20045;-69
2022/09/14 01:11:15;;;;;;;10.32;4.90;;;;;;;;;;5051578;28;20041;-69
2022/09/14 01:13:41;;;;;;;10.95;4.57;;;;;;;;;;5051594;28;20044;-69
2022/09/14 01:16:14;;;;;;;13.68;5.20;;;;;;;;;;5050439;28;20086;-69
2022/09/14 01:18:44;;;;;;;12.75;5.95;;;;;;;;;;5051766;28;20041;-69
2022/09/14 01:21:20;;;;;;;15.70;6.35;;;;;;;;;;5051679;28;20084;-69
2022/09/14 01:23:52;;;;;;;12.65;6.03;;;;;;;;;;5051339;28;20068;-69
2022/09/14 01:26:43;;;;;;;12.75;5.78;;;;;;;;;;5050223;28;20041;-69
2022/09/14 01:29:13;;;;;;;12.68;5.55;;;;;;;;;;5037445;28;20556;-69
2022/09/14 01:31:42;;;;;;;14.35;5.93;;;;;;;;;;5053495;28;20043;-69
2022/09/14 01:34:17;;;;;;;10.38;5.25;;;;;;;;;;5055037;28;20048;-69
2022/09/14 01:36:47;;;;;;;11.75;5.88;;;;;;;;;;5054435;28;20045;-69
2022/09/14 01:39:14;;;;;;;12.20;5.75;;;;;;;;;;5054846;28;20040;-69
2022/09/14 01:41:41;;;;;;;9.70;6.00;;;;;;;;;;5055523;28;20075;-69
2022/09/14 01:44:13;;;;;;;16.75;7.47;;;;;;;;;;5053984;28;20063;-69
2022/09/14 01:46:44;;;;;;;10.68;5.95;;;;;;;;;;5055158;28;20394;-69
2022/09/14 01:49:23;;;;;;;12.30;6.43;;;;;;;;;;5055742;28;20051;-75
2022/09/14 01:52:16;;;;;;;9.68;5.80;;;;;;;;;;5041335;28;20038;-74
2022/09/14 01:54:51;;;;;;;11.80;6.47;;;;;;;;;;5053059;28;20187;-74
2022/09/14 01:57:20;;;;;;;9.98;4.70;;;;;;;;;;5054378;28;20037;-69
2022/09/14 01:59:48;;;;;;;11.50;4.85;;;;;;;;;;5053696;28;20479;-69
2022/09/14 02:02:14;;;;;;;11.70;5.15;;;;;;;;;;5052359;28;20120;-74
2022/09/14 02:04:45;;;;;;;9.60;4.78;;;;;;;;;;5054130;28;20102;-74
2022/09/14 02:07:12;;;;;;;10.40;4.97;;;;;;;;;;5053368;28;20048;-74
2022/09/14 02:09:38;;;;;;;9.20;4.63;;;;;;;;;;5054438;28;20421;-74
2022/09/14 02:12:04;;;;;;;11.32;5.30;;;;;;;;;;5054822;28;20525;-69
2022/09/14 02:14:30;;;;;;;11.48;5.80;;;;;;;;;;5070405;28;20044;-74
2022/09/14 02:16:57;;;;;;;10.40;5.68;;;;;;;;;;5054875;28;20482;-69
2022/09/14 02:19:24;;;;;;;8.48;5.45;;;;;;;;;;5053305;28;20051;-68
2022/09/14 02:21:50;;;;;;;11.43;5.13;;;;;;;;;;5036648;28;20044;-69
2022/09/14 02:24:17;;;;;;;14.18;5.47;;;;;;;;;;5054420;28;20414;-69
2022/09/14 02:26:43;;;;;;;16.83;5.13;;;;;;;;;;5053157;28;20044;-69
2022/09/14 02:29:10;;;;;;;8.82;4.70;;;;;;;;;;5043455;28;20049;-74
2022/09/14 02:31:59;;;;;;;10.15;5.07;;;;;;;;;;5055420;28;20451;-74
2022/09/14 02:34:44;;;;;;;9.63;4.50;;;;;;;;;;5040729;28;20532;-74
2022/09/14 02:37:25;;;;;;;9.95;4.65;;;;;;;;;;5053849;28;20041;-74
2022/09/14 02:40:00;;;;;;;10.43;4.93;;;;;;;;;;5054986;28;20068;-74
2022/09/14 02:42:36;;;;;;;9.93;4.45;;;;;;;;;;5053127;28;20131;-74
2022/09/14 02:45:02;;;;;;;;;;;;;;;;;;5054228;28;20068;-74
2022/09/14 02:47:47;;;;;;;15.60;5.57;;;;;;;;;;5058573;28;20003;-74
2022/09/14 02:50:22;;;;;;;10.93;5.40;;;;;;;;;;5053607;28;20059;-74
2022/09/14 02:52:55;;;;;;;13.93;5.40;;;;;;;;;;5053996;28;20496;-74
2022/09/14 02:55:23;;;;;;;12.07;5.10;;;;;;;;;;5055051;28;20045;-74
2022/09/14 02:58:06;;;;;;;9.02;6.13;;;;;;;;;;5053352;28;20127;-74
2022/09/14 03:00:35;;;;;;;13.10;5.53;;;;;;;;;;5053269;28;20087;-74
2022/09/14 03:03:02;;;;;;;9.70;5.68;;;;;;;;;;5053763;28;20061;-69
2022/09/14 03:05:28;;;;;;;8.43;5.05;;;;;;;;;;5053761;28;20545;-69
2022/09/14 03:07:54;;;;;;;9.35;4.90;;;;;;;;;;5052905;28;20033;-74
2022/09/14 03:10:20;;;;;;;10.70;5.47;;;;;;;;;;5054286;28;20072;-74
2022/09/14 03:12:46;;;;;;;10.48;5.50;;;;;;;;;;5054178;28;20532;-69
2022/09/14 03:15:12;;;;;;;11.95;5.35;;;;;;;;;;5052083;28;20083;-69
2022/09/14 03:17:38;;;;;;;11.38;5.72;;;;;;;;;;5052386;28;20091;-69
2022/09/14 03:20:05;;;;;;;12.30;6.10;;;;;;;;;;5051762;28;20079;-69
2022/09/14 03:22:32;;;;;;;18.85;5.97;;;;;;;;;;5052234;28;20041;-74
2022/09/14 03:24:58;;;;;;;11.38;4.72;;;;;;;;;;5053246;28;20509;-69
2022/09/14 03:27:24;;;;;;;12.30;5.03;;;;;;;;;;5050570;28;20048;-69
2022/09/14 03:29:50;;;;;;;9.93;5.20;;;;;;;;;;5042187;28;20263;-69
2022/09/14 03:32:16;;;;;;;12.35;5.68;;;;;;;;;;5052306;28;20037;-74
2022/09/14 03:34:42;;;;;;;9.38;5.13;;;;;;;;;;5053376;28;20525;-74
2022/09/14 03:37:08;;;;;;;8.85;4.82;;;;;;;;;;5052707;28;20501;-74
2022/09/14 03:39:35;;;;;;;9.75;5.10;;;;;;;;;;5053961;28;20037;-74
2022/09/14 03:42:01;;;;;;;8.38;5.10;;;;;;;;;;5033160;28;20551;-75
2022/09/14 03:44:27;;;;;;;11.43;5.70;;;;;;;;;;5052367;28;20126;-74
2022/09/14 03:46:53;;;;;;;9.15;5.95;;;;;;;;;;5036078;28;20037;-75
2022/09/14 03:49:19;;;;;;;9.43;4.90;;;;;;;;;;5038604;28;20046;-75
2022/09/14 03:51:45;;;;;;;14.43;5.90;;;;;;;;;;5052597;28;20036;-75
2022/09/14 03:54:11;;;;;;;15.38;5.75;;;;;;;;;;5052739;28;20052;-75
2022/09/14 03:56:37;;;;;;;9.10;5.70;;;;;;;;;;5053841;28;20079;-75
2022/09/14 03:59:03;;;;;;;12.75;5.47;;;;;;;;;;5052817;28;20428;-69
2022/09/14 04:01:31;;;;;;;10.43;5.22;;;;;;;;;;5051562;28;20057;-69
2022/09/14 04:03:57;;;;;;;10.50;5.13;;;;;;;;;;5052272;28;20049;-69
2022/09/14 04:06:24;;;;;;;7.03;4.90;;;;;;;;;;5050192;28;20037;-69
2022/09/14 04:08:51;;;;;;;9.07;5.60;;;;;;;;;;5068310;28;20045;-74
2022/09/14 04:11:19;;;;;;;11.27;5.53;;;;;;;;;;5053435;28;20044;-75
2022/09/14 04:13:45;;;;;;;12.98;5.65;;;;;;;;;;5031866;28;20122;-74
2022/09/14 04:16:11;;;;;;;11.13;6.15;;;;;;;;;;5041995;28;20037;-74
2022/09/14 04:18:37;;;;;;;9.15;5.82;;;;;;;;;;5053644;28;20041;-75
2022/09/14 04:21:05;;;;;;;12.32;6.13;;;;;;;;;;5044235;28;20045;-75
2022/09/14 04:23:31;;;;;;;13.48;6.30;;;;;;;;;;5046327;28;20036;-74
2022/09/14 04:25:57;;;;;;;12.30;6.30;;;;;;;;;;5052314;28;20486;-74
2022/09/14 04:28:24;;;;;;;9.98;5.70;;;;;;;;;;5052132;28;20174;-75
2022/09/14 04:30:56;;;;;;;12.80;6.78;;;;;;;;;;5051927;28;20110;-74
2022/09/14 04:33:22;;;;;;;15.50;6.85;;;;;;;;;;5052255;28;20478;-74
2022/09/14 04:36:00;;;;;;;11.63;6.32;;;;;;;;;;5053502;28;20136;-74
2022/09/14 04:38:27;;;;;;;11.68;6.05;;;;;;;;;;5035845;28;20126;-74
2022/09/14 04:40:53;;;;;;;9.05;5.88;;;;;;;;;;5035836;28;20072;-74
2022/09/14 04:43:19;;;;;;;11.57;6.65;;;;;;;;;;5051902;28;20044;-75
2022/09/14 04:45:45;;;;;;;8.95;5.15;;;;;;;;;;5051854;28;20050;-74
2022/09/14 04:48:11;;;;;;;10.75;5.80;;;;;;;;;;5053439;28;20040;-74
2022/09/14 04:50:37;;;;;;;11.55;6.60;;;;;;;;;;5053066;28;20041;-75
2022/09/14 04:53:03;;;;;;;13.07;6.43;;;;;;;;;;5034091;28;20133;-74
2022/09/14 04:55:29;;;;;;;12.05;6.35;;;;;;;;;;5048896;28;20564;-74
2022/09/14 04:57:55;;;;;;;13.60;6.60;;;;;;;;;;5050191;28;20116;-75
2022/09/14 05:00:21;;;;;;;13.25;6.80;;;;;;;;;;5034771;28;20053;-74
2022/09/14 05:02:48;;;;;;;9.35;6.80;;;;;;;;;;5051524;28;20053;-75
2022/09/14 05:05:14;;;;;;;10.32;5.80;;;;;;;;;;5050948;28;20049;-74
2022/09/14 05:07:40;;;;;;;8.70;6.40;;;;;;;;;;5051453;28;20051;-75
2022/09/14 05:10:07;;;;;;;11.40;6.30;;;;;;;;;;5052548;28;20048;-75
2022/09/14 05:12:33;;;;;;;9.73;6.35;;;;;;;;;;5051305;28;20049;-73
2022/09/14 05:14:59;;;;;;;9.35;6.47;;;;;;;;;;5053064;28;20049;-75
2022/09/14 05:17:25;;;;;;;8.18;6.20;;;;;;;;;;5038447;28;20421;-74
2022/09/14 05:19:51;;;;;;;13.98;6.15;;;;;;;;;;5051634;28;20459;-74
2022/09/14 05:22:21;;;;;;;11.25;6.22;;;;;;;;;;5052622;28;20076;-75
2022/09/14 05:24:47;;;;;;;11.38;6.25;;;;;;;;;;5051767;28;20055;-75
2022/09/14 05:27:13;;;;;;;11.57;6.95;;;;;;;;;;5052752;28;20037;-74
2022/09/14 05:29:39;;;;;;;10.10;6.72;;;;;;;;;;5052678;28;20037;-74
2022/09/14 05:32:06;;;;;;;12.68;5.97;;;;;;;;;;5051178;28;20151;-75
2022/09/14 05:34:32;;;;;;;12.63;6.90;;;;;;;;;;5051206;28;20044;-75
2022/09/14 05:36:58;;;;;;;11.88;7.10;;;;;;;;;;5052099;28;20048;-67
2022/09/14 05:39:24;;;;;;;12.50;6.57;;;;;;;;;;5050970;28;20029;-67
2022/09/14 05:41:51;;;;;;;12.20;6.45;;;;;;;;;;5050362;28;20497;-70
2022/09/14 05:44:17;;;;;;;12.27;6.10;;;;;;;;;;5050230;28;20086;-70
2022/09/14 05:46:43;;;;;;;8.80;5.85;;;;;;;;;;5050388;28;20044;-69
2022/09/14 05:49:09;;;;;;;10.60;6.70;;;;;;;;;;5033519;28;20041;-70
2022/09/14 05:51:35;;;;;;;12.75;6.35;;;;;;;;;;5017069;28;20056;-69
2022/09/14 05:54:08;;;;;;;10.38;6.32;;;;;;;;;;5050106;28;20041;-69
2022/09/14 05:56:34;;;;;;;10.38;6.53;;;;;;;;;;5049858;28;20052;-69
2022/09/14 05:59:00;;;;;;;11.23;5.50;;;;;;;;;;5051224;28;20516;-69
2022/09/14 06:01:28;;;;;;;11.63;5.57;;;;;;;;;;5032439;28;20057;-69
2022/09/14 06:03:59;;;;;;;12.10;6.90;;;;;;;;;;5050356;28;20591;-70
2022/09/14 06:06:25;;;;;;;11.02;5.95;;;;;;;;;;5049764;28;20037;-69
2022/09/14 06:08:52;;;;;;;13.93;6.30;;;;;;;;;;5051160;28;20048;-70
2022/09/14 06:11:20;;;;;;;11.40;6.00;;;;;;;;;;5049647;28;20045;-70
2022/09/14 06:13:46;;;;;;;12.68;6.80;;;;;;;;;;5050997;28;20509;-70
2022/09/14 06:16:14;;;;;;;13.73;6.45;;;;;;;;;;5060390;28;20516;-70
2022/09/14 06:18:41;;;;;;;12.88;6.30;;;;;;;;;;5072477;28;20120;-70
2022/09/14 06:21:08;;;;;;;11.32;6.57;;;;;;;;;;5054922;28;20521;-69
2022/09/14 06:23:34;;;;;;;9.80;6.60;;;;;;;;;;5054459;28;20037;-71
2022/09/14 06:26:01;;;;;;;12.52;7.13;;;;;;;;;;5053609;28;20052;-71
2022/09/14 06:28:27;;;;;;;11.40;6.88;;;;;;;;;;5043145;28;20375;-70
2022/09/14 06:30:54;;;;;;;12.70;6.68;;;;;;;;;;5053227;28;20033;-68
2022/09/14 06:33:20;;;;;;;11.82;6.88;;;;;;;;;;5054547;28;20486;-68
2022/09/14 06:35:59;;;;;;;10.93;6.55;;;;;;;;;;5054268;28;20037;-73
2022/09/14 06:38:25;;;;;;;12.38;6.78;;;;;;;;;;5055761;28;20037;-73
2022/09/14 06:40:52;;;;;;;9.57;6.30;;;;;;;;;;5054408;28;20401;-73
2022/09/14 06:43:18;;;;;;;11.27;6.10;;;;;;;;;;5055404;28;20424;-74
2022/09/14 06:45:44;;;;;;;10.38;5.70;;;;;;;;;;5055474;28;20128;-73
2022/09/14 06:48:10;;;;;;;14.48;6.10;;;;;;;;;;5055235;28;20056;-74
2022/09/14 06:50:36;;;;;;;11.57;6.30;;;;;;;;;;5055003;28;20124;-69
2022/09/14 06:53:02;;;;;;;9.90;6.47;;;;;;;;;;5052675;28;20037;-69
2022/09/14 06:55:29;;;;;;;10.02;6.45;;;;;;;;;;5053873;28;20056;-69
2022/09/14 06:57:55;;;;;;;12.52;6.75;;;;;;;;;;5036472;28;20132;-68
2022/09/14 07:00:21;;;;;;;12.82;6.53;;;;;;;;;;5052471;28;20055;-69
2022/09/14 07:02:48;;;;;;;13.95;6.15;;;;;;;;;;5052912;28;20406;-74
2022/09/14 07:05:14;;;;;;;7.88;4.72;;;;;;;;;;5055237;28;20040;-69
2022/09/14 07:07:40;;;;;;;7.72;4.65;;;;;;;;;;5052616;28;20580;-69
2022/09/14 07:10:06;;;;;;;11.43;4.20;;;;;;;;;;5052338;28;20152;-68
2022/09/14 07:12:33;;;;;;;9.93;4.40;;;;;;;;;;5053206;28;20044;-69
2022/09/14 07:14:59;;;;;;;10.57;4.55;;;;;;;;;;5055189;28;20047;-74
2022/09/14 07:17:25;;;;;;;11.10;4.72;;;;;;;;;;5054746;28;20048;-74
2022/09/14 07:19:51;;;;;;;7.30;4.03;;;;;;;;;;5054847;28;20032;-74
2022/09/14 07:22:17;;;;;;;8.52;3.90;;;;;;;;;;5053605;28;20486;-74
2022/09/14 07:24:43;;;;;;;8.75;4.07;;;;;;;;;;5053191;28;20041;-74
2022/09/14 07:27:09;;;;;;;8.55;3.63;;;;;;;;;;5053497;28;20093;-74
2022/09/14 07:29:35;;;;;;;5.93;3.88;;;;;;;;;;5043000;28;20608;-74
2022/09/14 07:32:01;;;;;;;10.00;3.45;;;;;;;;;;5054033;28;20473;-75
2022/09/14 07:34:27;;;;;;;8.02;3.33;;;;;;;;;;5054461;28;20415;-74
2022/09/14 07:36:53;;;;;;;8.02;3.50;;;;;;;;;;5054601;28;20037;-74
2022/09/14 07:39:19;;;;;;;9.73;3.45;;;;;;;;;;5052818;28;20036;-74
2022/09/14 07:41:45;;;;;;;8.20;2.90;;;;;;;;;;5052906;28;20042;-74
2022/09/14 07:44:13;;;;;;;9.25;3.15;;;;;;;;;;5036092;28;20124;-75
2022/09/14 07:46:40;;;;;;;6.40;2.10;;;;;;;;;;5054353;28;20049;-74
2022/09/14 07:49:07;;;;;;;3.67;1.10;;;;;;;;;;5053871;28;20048;-74
2022/09/14 07:51:35;;;;;;;2.33;1.20;;;;;;;;;;5052860;28;20432;-74
2022/09/14 07:54:02;;;;;;;3.20;0.65;;;;;;;;;;5052751;28;20040;-75
2022/09/14 07:56:28;;;;;;;4.40;0.60;;;;;;;;;;5052582;28;20109;-75
2022/09/14 07:58:55;;;;;;;5.47;0.88;;;;;;;;;;5042343;28;20045;-75
2022/09/14 08:01:22;;;;;;;5.78;1.30;;;;;;;;;;5033576;28;20053;-75
2022/09/14 08:03:48;;;;;;;3.28;1.20;;;;;;;;;;5035811;28;20048;-75
2022/09/14 08:06:15;;;;;;;6.15;1.10;;;;;;;;;;5052376;28;20041;-75
2022/09/14 08:08:43;;;;;;;8.45;2.03;;;;;;;;;;5053921;28;20052;-75
2022/09/14 08:11:10;;;;;;;8.50;1.90;;;;;;;;;;5021174;28;20119;-70
2022/09/14 08:13:37;;;;;;;3.15;1.10;;;;;;;;;;5052115;28;20041;-70
2022/09/14 08:16:03;;;;;;;5.47;1.10;;;;;;;;;;5052763;28;20040;-70
2022/09/14 08:18:30;;;;;;;5.43;1.10;;;;;;;;;;5052407;28;20397;-70
2022/09/14 08:20:56;;;;;;;5.82;1.38;;;;;;;;;;5050870;28;20048;-70
2022/09/14 08:23:22;;;;;;;4.60;1.10;;;;;;;;;;5051559;28;20044;-70
2022/09/14 08:25:48;;;;;;;4.68;0.98;;;;;;;;;;5051997;28;20041;-70
2022/09/14 08:28:14;;;;;;;5.47;1.00;;;;;;;;;;5042977;28;20099;-70
2022/09/14 08:30:41;;;;;;;6.53;1.10;;;;;;;;;;5048052;28;20444;-70
2022/09/14 08:33:07;;;;;;;4.45;1.27;;;;;;;;;;5052094;28;20072;-70
2022/09/14 08:35:33;;;;;;;6.38;1.25;;;;;;;;;;5052032;28;20072;-70
2022/09/14 08:37:59;;;;;;;4.80;1.10;;;;;;;;;;5052273;28;20120;-71
2022/09/14 08:40:25;;;;;;;4.55;0.90;;;;;;;;;;5050630;28;20390;-70
2022/09/14 08:43:02;;;;;;;5.55;1.20;;;;;;;;;;5050441;28;20120;-70
2022/09/14 08:45:28;;;;;;;7.80;2.50;;;;;;;;;;5052262;28;20140;-70
2022/09/14 08:47:55;;;;;;;4.20;0.85;;;;;;;;;;5050858;28;20524;-70
2022/09/14 08:50:21;;;;;;;1.80;0.82;;;;;;;;;;5034516;28;20517;-70
2022/09/14 08:52:48;;;;;;;6.80;1.35;;;;;;;;;;5050300;28;20044;-70
2022/09/14 08:55:14;;;;;;;4.28;1.10;;;;;;;;;;5050714;28;20045;-70
2022/09/14 08:57:44;;;;;;;3.65;0.80;;;;;;;;;;5051029;28;20484;-70
2022/09/14 09:00:16;;;;;;;5.55;0.90;;;;;;;;;;5050653;28;20551;-70
2022/09/14 09:02:45;;;;;;;7.13;1.20;;;;;;;;;;5051523;28;20062;-70
2022/09/14 09:05:17;;;;;;;3.15;0.60;;;;;;;;;;5050536;28;20132;-70
2022/09/14 09:08:06;;;;;;;7.28;0.90;;;;;;;;;;5051927;28;20401;-71
2022/09/14 09:10:33;;;;;;;4.78;0.70;;;;;;;;;;5050603;28;20088;-70
2022/09/14 09:13:00;;;;;;;2.33;0.57;;;;;;;;;;5033521;28;20041;-71
2022/09/14 09:15:42;;;;;;;4.63;0.65;;;;;;;;;;5050206;28;20036;-71
2022/09/14 09:18:13;;;;;;;5.85;0.75;;;;;;;;;;5051859;28;20624;-70
2022/09/14 09:20:42;;;;;;;4.90;0.90;;;;;;;;;;5033761;28;20033;-70
2022/09/14 09:23:15;;;;;;;2.38;0.60;;;;;;;;;;5051784;28;20048;-71
2022/09/14 09:25:51;;;;;;;2.33;0.40;;;;;;;;;;5050567;28;20037;-71
2022/09/14 09:28:18;;;;;;;3.70;0.70;;;;;;;;;;5043389;28;20046;-70
2022/09/14 09:30:44;;;;;;;5.72;0.90;;;;;;;;;;5031272;28;20044;-70
2022/09/14 09:33:16;;;;;;;3.42;0.70;;;;;;;;;;5050289;28;20040;-71
2022/09/14 09:35:43;;;;;;;3.72;0.60;;;;;;;;;;5050239;28;20098;-70
2022/09/14 09:38:16;;;;;;;3.30;0.65;;;;;;;;;;5050767;28;20555;-71
2022/09/14 09:40:45;;;;;;;4.93;0.60;;;;;;;;;;5050467;28;20119;-71
2022/09/14 09:43:13;;;;;;;7.85;0.70;;;;;;;;;;5033630;28;20048;-71
2022/09/14 09:45:56;;;;;;;3.30;0.70;;;;;;;;;;5051905;28;20053;-71
2022/09/14 09:48:24;;;;;;;3.42;0.60;;;;;;;;;;5052283;28;20107;-71
2022/09/14 09:51:00;;;;;;;3.47;0.70;;;;;;;;;;5050231;28;20045;-71
2022/09/14 09:53:26;;;;;;;3.25;0.60;;;;;;;;;;5054328;28;20076;-72
2022/09/14 09:55:53;;;;;;;5.93;0.88;;;;;;;;;;5037515;28;20036;-71
2022/09/14 09:58:34;;;;;;;4.07;0.98;;;;;;;;;;5054287;28;20052;-72
2022/09/14 10:01:01;;;;;;;6.05;1.08;;;;;;;;;;5054532;28;20049;-72
2022/09/14 10:03:36;;;;;;;3.00;0.70;;;;;;;;;;5055847;28;20045;-76
2022/09/14 10:06:06;;;;;;;5.13;0.80;;;;;;;;;;5056090;28;20087;-76
2022/09/14 10:08:33;;;;;;;4.10;0.70;;;;;;;;;;5055385;28;20436;-76
2022/09/14 10:11:03;;;;;;;3.70;0.73;;;;;;;;;;5042829;28;20111;-76
2022/09/14 10:13:34;;;;;;;2.20;0.60;;;;;;;;;;5070483;28;20421;-76
2022/09/14 10:16:16;;;;;;;4.72;0.65;;;;;;;;;;5046348;28;20540;-72
2022/09/14 10:18:47;;;;;;;2.38;0.80;;;;;;;;;;5067290;28;20041;-72
2022/09/14 10:21:14;;;;;;;4.00;0.50;;;;;;;;;;5054689;28;20037;-72
2022/09/14 10:23:41;;;;;;;2.75;0.60;;;;;;;;;;5053482;28;20048;-72
2022/09/14 10:26:10;;;;;;;2.88;1.00;;;;;;;;;;5037024;28;20394;-72
2022/09/14 10:28:36;;;;;;;5.85;0.75;;;;;;;;;;5042743;28;20497;-72
2022/09/14 10:31:02;;;;;;;2.58;0.60;;;;;;;;;;5039348;28;20040;-70
2022/09/14 10:33:29;;;;;;;4.32;0.70;;;;;;;;;;5053293;28;20497;-69
2022/09/14 10:36:07;;;;;;;4.50;0.57;;;;;;;;;;5052773;28;20037;-69
2022/09/14 10:38:33;;;;;;;5.25;0.70;;;;;;;;;;5053305;28;20102;-70
2022/09/14 10:41:18;;;;;;;2.47;0.60;;;;;;;;;;5052645;28;20051;-69
2022/09/14 10:43:54;;;;;;;2.10;0.60;;;;;;;;;;5053426;28;20496;-69
2022/09/14 10:46:20;;;;;;;3.45;0.65;;;;;;;;;;5036562;28;20049;-73
2022/09/14 10:48:56;;;;;;;3.97;0.90;;;;;;;;;;5053402;28;20393;-70
2022/09/14 10:51:41;;;;;;;4.13;0.50;;;;;;;;;;5052775;28;20059;-71
2022/09/14 10:54:25;;;;;;;6.28;0.77;;;;;;;;;;5054245;28;20541;-70
2022/09/14 10:57:11;;;;;;;3.28;0.68;;;;;;;;;;5053155;28;20048;-70
2022/09/14 10:59:53;;;;;;;2.05;0.70;;;;;;;;;;5052624;28;20048;-70
2022/09/14 11:02:28;;;;;;;3.80;0.70;;;;;;;;;;5052532;28;20045;-70
2022/09/14 11:05:04;;;;;;;3.35;0.65;;;;;;;;;;5052447;28;20501;-69
2022/09/14 11:07:41;;;;;;;4.78;0.70;;;;;;;;;;5035951;28;20059;-69
2022/09/14 11:10:26;;;;;;;7.25;1.10;;;;;;;;;;5052447;28;20048;-69
2022/09/14 11:13:11;;;;;;;3.25;0.65;;;;;;;;;;5052349;28;20033;-71
2022/09/14 11:15:52;;;;;;;3.17;0.70;;;;;;;;;;5069005;28;20049;-72
2022/09/14 11:18:24;;;;;;;6.45;0.98;;;;;;;;;;5053430;28;20041;-72
2022/09/14 11:20:50;;;;;;;6.32;0.70;;;;;;;;;;5052532;28;20068;-73
2022/09/14 11:23:16;;;;;;;6.00;0.90;;;;;;;;;;5053189;28;20052;-73
2022/09/14 11:25:47;;;;;;;2.35;0.60;;;;;;;;;;5052154;28;20033;-72
2022/09/14 11:28:16;;;;;;;2.90;0.60;;;;;;;;;;5045268;28;20049;-72
2022/09/14 11:30:47;;;;;;;4.40;0.70;;;;;;;;;;5049657;28;20537;-71
2022/09/14 11:33:18;;;;;;;5.53;1.15;;;;;;;;;;5052183;28;20045;-76
2022/09/14 11:35:52;;;;;;;3.47;0.75;;;;;;;;;;5036316;28;20040;-76
2022/09/14 11:38:29;;;;;;;3.70;0.73;;;;;;;;;;5052569;28;20037;-76
2022/09/14 11:40:59;;;;;;;3.55;0.70;;;;;;;;;;5053740;28;20044;-76
2022/09/14 11:43:45;;;;;;;2.75;0.77;;;;;;;;;;5035492;28;20393;-76
2022/09/14 11:46:13;;;;;;;3.50;0.60;;;;;;;;;;5052068;28;20540;-76
2022/09/14 11:48:42;;;;;;;4.32;0.80;;;;;;;;;;5052324;28;20045;-76
2022/09/14 11:51:14;;;;;;;4.03;0.93;;;;;;;;;;5035817;28;20063;-76
2022/09/14 11:53:45;;;;;;;2.55;0.70;;;;;;;;;;5052297;28;20049;-76
2022/09/14 11:56:28;;;;;;;2.97;0.85;;;;;;;;;;5053370;28;20041;-76
2022/09/14 11:59:03;;;;;;;3.88;0.90;;;;;;;;;;5035267;28;20041;-76
2022/09/14 12:01:36;;;;;;;3.60;0.88;;;;;;;;;;5052845;28;20084;-76
2022/09/14 12:04:07;;;;;;;3.70;0.80;;;;;;;;;;5051815;28;20045;-77
2022/09/14 12:06:33;;;;;;;3.75;0.70;;;;;;;;;;5051776;28;20040;-77
2022/09/14 12:09:30;;;;;;;4.22;0.73;;;;;;;;;;5035907;28;20036;-76
2022/09/14 12:11:57;;;;;;;3.85;0.88;;;;;;;;;;5043488;28;20124;-76
2022/09/14 12:14:23;;;;;;;2.65;0.60;;;;;;;;;;5051310;28;20053;-76
2022/09/14 12:17:08;;;;;;;3.88;0.65;;;;;;;;;;5052033;28;20435;-76
2022/09/14 12:19:35;;;;;;;4.78;0.75;;;;;;;;;;5052294;28;20059;-76
2022/09/14 12:22:19;;;;;;;4.95;0.65;;;;;;;;;;5052011;28;20045;-77
2022/09/14 12:24:57;;;;;;;3.50;0.68;;;;;;;;;;5051864;28;20123;-76
2022/09/14 12:27:23;;;;;;;3.17;0.90;;;;;;;;;;5051297;28;20033;-72
2022/09/14 12:29:49;;;;;;;5.20;0.60;;;;;;;;;;5041655;28;20425;-72
2022/09/14 12:32:44;;;;;;;3.92;0.70;;;;;;;;;;5050764;28;20045;-71
2022/09/14 12:35:29;;;;;;;2.40;0.70;;;;;;;;;;5042421;28;20057;-71
2022/09/14 12:37:55;;;;;;;5.55;0.80;;;;;;;;;;5034596;28;20048;-72
2022/09/14 12:40:22;;;;;;;10.20;1.15;;;;;;;;;;5050716;28;20037;-72
2022/09/14 12:42:48;;;;;;;3.15;0.63;;;;;;;;;;5051107;28;20047;-71
2022/09/14 12:45:33;;;;;;;1.85;0.55;;;;;;;;;;5050991;28;20040;-71
2022/09/14 12:47:59;;;;;;;5.13;0.90;;;;;;;;;;5034354;28;20064;-71
2022/09/14 12:50:29;;;;;;;4.35;0.65;;;;;;;;;;5050796;28;20044;-71
2022/09/14 12:53:07;;;;;;;3.13;0.50;;;;;;;;;;5034226;28;20033;-71
2022/09/14 12:55:36;;;;;;;4.93;0.60;;;;;;;;;;5051537;28;20045;-71
2022/09/14 12:58:06;;;;;;;1.73;0.50;;;;;;;;;;5034225;28;20044;-72
2022/09/14 13:00:43;;;;;;;4.63;0.70;;;;;;;;;;5050067;28;20095;-72
2022/09/14 13:03:21;;;;;;;5.53;0.80;;;;;;;;;;5050616;28;20497;-71
2022/09/14 13:05:48;;;;;;;3.47;0.68;;;;;;;;;;5033873;28;20049;-71
2022/09/14 13:08:18;;;;;;;4.30;0.65;;;;;;;;;;5051367;28;20110;-72
2022/09/14 13:10:48;;;;;;;6.10;1.02;;;;;;;;;;5050495;28;20041;-72
2022/09/14 13:13:16;;;;;;;3.65;0.73;;;;;;;;;;5051058;28;20514;-72
2022/09/14 13:16:02;;;;;;;2.90;0.65;;;;;;;;;;5050495;28;20041;-76
2022/09/14 13:18:36;;;;;;;5.13;0.82;;;;;;;;;;5050879;28;20546;-76
2022/09/14 13:21:04;;;;;;;2.80;0.70;;;;;;;;;;5050582;28;20482;-72
2022/09/14 13:23:32;;;;;;;3.20;0.60;;;;;;;;;;5049811;28;20202;-72
2022/09/14 13:25:59;;;;;;;2.38;0.70;;;;;;;;;;5051729;28;20041;-71
2022/09/14 13:28:27;;;;;;;2.58;0.60;;;;;;;;;;5011997;28;20123;-76
2022/09/14 13:30:55;;;;;;;3.88;0.63;;;;;;;;;;5059014;28;20574;-77
2022/09/14 13:33:21;;;;;;;2.17;0.50;;;;;;;;;;5063392;28;20033;-76
2022/09/14 13:35:51;;;;;;;2.83;0.70;;;;;;;;;;5054443;28;20110;-75
2022/09/14 13:38:19;;;;;;;4.72;0.80;;;;;;;;;;5054114;28;20072;-71
2022/09/14 13:40:48;;;;;;;4.43;0.90;;;;;;;;;;5053941;28;20041;-71
2022/09/14 13:43:15;;;;;;;2.88;0.55;;;;;;;;;;5054970;28;20041;-71
2022/09/14 13:45:41;;;;;;;2.85;0.73;;;;;;;;;;5054649;28;20569;-75
2022/09/14 13:48:07;;;;;;;3.15;0.63;;;;;;;;;;5054850;28;20126;-76
2022/09/14 13:50:33;;;;;;;5.80;1.20;;;;;;;;;;5054381;28;20049;-76
2022/09/14 13:52:59;;;;;;;5.68;0.80;;;;;;;;;;5054178;28;20041;-76
2022/09/14 13:55:27;;;;;;;3.58;0.68;;;;;;;;;;5054086;28;20128;-77
2022/09/14 13:58:05;;;;;;;3.60;0.75;;;;;;;;;;5055643;28;20073;-76
2022/09/14 14:00:32;;;;;;;3.42;0.90;;;;;;;;;;5053827;28;20053;-75
2022/09/14 14:03:00;;;;;;;6.53;0.77;;;;;;;;;;5054308;28;20053;-75
2022/09/14 14:05:33;;;;;;;3.53;0.80;;;;;;;;;;5054323;28;20569;-73
2022/09/14 14:08:00;;;;;;;3.63;1.00;;;;;;;;;;5054949;28;20366;-75
2022/09/14 14:10:38;;;;;;;2.65;0.60;;;;;;;;;;5054611;28;20094;-71
2022/09/14 14:13:05;;;;;;;3.85;0.77;;;;;;;;;;5053549;28;20116;-71
2022/09/14 14:15:38;;;;;;;5.28;1.02;;;;;;;;;;5054064;28;20037;-71
2022/09/14 14:18:23;;;;;;;3.42;0.63;;;;;;;;;;5053447;28;20099;-71
2022/09/14 14:20:49;;;;;;;3.30;0.93;;;;;;;;;;5036474;28;20120;-71
2022/09/14 14:23:21;;;;;;;6.47;0.98;;;;;;;;;;5054396;28;20275;-71
2022/09/14 14:25:53;;;;;;;4.82;1.00;;;;;;;;;;5054138;28;20056;-71
2022/09/14 14:28:23;;;;;;;5.70;0.90;;;;;;;;;;5044466;28;20557;-70
2022/09/14 14:30:52;;;;;;;4.22;1.05;;;;;;;;;;5051222;28;20378;-71
2022/09/14 14:33:18;;;;;;;2.85;0.70;;;;;;;;;;5054375;28;20072;-71
2022/09/14 14:35:45;;;;;;;3.85;0.90;;;;;;;;;;5052644;28;20536;-70
2022/09/14 14:38:12;;;;;;;5.97;2.28;;;;;;;;;;5053391;28;20049;-71
2022/09/14 14:40:39;;;;;;;5.65;1.30;;;;;;;;;;5052351;28;20045;-71
2022/09/14 14:43:06;;;;;;;12.13;4.22;;;;;;;;;;5054000;28;20112;-71
2022/09/14 14:45:33;;;;;;;14.77;2.45;;;;;;;;;;5054220;28;20036;-75
2022/09/14 14:47:59;;;;;;;6.80;0.90;;;;;;;;;;5054413;28;20094;-76
2022/09/14 14:50:34;;;;;;;6.07;0.80;;;;;;;;;;5053753;28;20041;-72
2022/09/14 14:53:01;;;;;;;5.13;1.10;;;;;;;;;;5052373;28;20036;-75